Kahlotus, Washington
Current Conditions -  °F | °C
As of 5:53 AM on Thursday 30 Oct 2014 (Local Time) from KPSC Reporting Station
Light Rain Light Rain  
Wind Chill: 50°   Ceiling: 10000
Heat Index: 50°   Visibility: 10mi
Dew Point: 49°   Wind: 3mph
Humidity: 96%   Direction: 320°NW
Pressure: 30.08"   Gusts: NA
Location:  46.64°N, 118.56°W
Report Text: KPSC 301253Z 32003KT 10SM -RA FEW070 OVC100 10/09 A3008 RMK AO2 RAE25B51 SLP185 P0000 T01000094
Loading
Personal Weather Stations






























Interactive Weather Map
Tropical Storm Tracking
New forecast layout! Learn more

10-Day Weather Forecast

Advertisements
Track Severe Weather on mobile